createdAt,value
2022-12-07T00:02:07.417Z,2.95
2022-12-07T00:04:36.839Z,3.50
2022-12-07T00:07:06.172Z,3.60
2022-12-07T00:09:35.265Z,3.50
2022-12-07T00:12:03.997Z,3.63
2022-12-07T00:14:33.068Z,3.80
2022-12-07T00:17:01.984Z,5.00
2022-12-07T00:19:31.053Z,4.55
2022-12-07T00:21:59.882Z,5.63
2022-12-07T00:24:28.886Z,5.47
2022-12-07T00:26:57.709Z,4.70
2022-12-07T00:29:26.867Z,4.20
2022-12-07T00:31:55.581Z,3.92
2022-12-07T00:34:24.701Z,3.67
2022-12-07T00:36:53.535Z,3.47
2022-12-07T00:39:25.629Z,3.28
2022-12-07T00:41:54.611Z,3.20
2022-12-07T00:44:23.413Z,2.63
2022-12-07T00:46:52.508Z,2.90
2022-12-07T00:49:21.267Z,3.13
2022-12-07T00:51:53.398Z,3.22
2022-12-07T00:54:22.529Z,2.72
2022-12-07T00:56:51.198Z,3.83
2022-12-07T00:59:20.242Z,4.25
2022-12-07T01:01:49.313Z,4.00
2022-12-07T01:04:18.199Z,3.63
2022-12-07T01:06:47.937Z,3.23
2022-12-07T01:09:17.013Z,3.47
2022-12-07T01:11:45.909Z,2.90
2022-12-07T01:14:15.077Z,3.30
2022-12-07T01:16:43.792Z,2.35
2022-12-07T01:19:12.801Z,2.67
2022-12-07T01:21:41.907Z,2.10
2022-12-07T01:24:13.230Z,2.30
2022-12-07T01:26:43.008Z,2.15
2022-12-07T01:29:11.793Z,2.60
2022-12-07T01:31:40.928Z,3.63
2022-12-07T01:34:10.477Z,2.65
2022-12-07T01:36:39.925Z,3.10
2022-12-07T01:39:09.614Z,2.80
2022-12-07T01:41:45.573Z,2.70
2022-12-07T01:44:26.585Z,3.35
2022-12-07T01:47:04.214Z,3.92
2022-12-07T01:49:45.939Z,3.90
2022-12-07T01:52:22.806Z,3.55
2022-12-07T01:54:56.316Z,3.60
2022-12-07T01:57:25.599Z,3.28
2022-12-07T01:59:55.697Z,3.03
2022-12-07T02:02:37.656Z,2.60
2022-12-07T02:05:08.463Z,6.00
2022-12-07T02:07:40.039Z,7.40
2022-12-07T02:10:24.521Z,3.15
2022-12-07T02:13:11.530Z,5.93
2022-12-07T02:15:59.106Z,3.78
2022-12-07T02:18:49.384Z,3.30
2022-12-07T02:21:54.121Z,2.90
2022-12-07T02:25:00.230Z,3.20
2022-12-07T02:27:32.700Z,3.00
2022-12-07T02:30:06.545Z,3.10
2022-12-07T02:32:41.659Z,3.35
2022-12-07T02:35:19.991Z,2.65
2022-12-07T02:37:54.189Z,3.85
2022-12-07T02:40:55.441Z,3.10
2022-12-07T02:43:40.558Z,3.75
2022-12-07T02:46:35.892Z,5.50
2022-12-07T02:49:06.188Z,4.57
2022-12-07T02:51:35.713Z,3.53
2022-12-07T02:54:04.599Z,6.85
2022-12-07T02:56:43.955Z,3.00
2022-12-07T02:59:40.666Z,2.60
2022-12-07T03:02:33.120Z,3.67
2022-12-07T03:05:15.098Z,3.58
2022-12-07T03:08:06.827Z,5.03
2022-12-07T03:10:44.180Z,6.38
2022-12-07T03:13:16.254Z,6.00
2022-12-07T03:16:06.656Z,6.10
2022-12-07T03:18:40.797Z,5.97
2022-12-07T03:21:26.693Z,6.43
2022-12-07T03:24:02.773Z,6.28
2022-12-07T03:26:40.868Z,6.80
2022-12-07T03:29:16.887Z,6.22
2022-12-07T03:31:53.386Z,6.82
2022-12-07T03:34:31.930Z,5.22
2022-12-07T03:37:10.480Z,5.03
2022-12-07T03:39:47.691Z,5.13
2022-12-07T03:42:16.570Z,5.07
2022-12-07T03:44:45.877Z,5.05
2022-12-07T03:47:35.473Z,5.18
2022-12-07T03:50:33.694Z,5.05
2022-12-07T03:53:47.503Z,4.68
2022-12-07T03:56:17.085Z,5.22
2022-12-07T03:58:46.176Z,6.35
2022-12-07T04:01:15.434Z,8.73
2022-12-07T04:03:44.718Z,7.78
2022-12-07T04:06:14.010Z,7.55
2022-12-07T04:08:43.110Z,5.88
2022-12-07T04:11:12.379Z,6.60
2022-12-07T04:13:59.424Z,7.30
2022-12-07T04:16:28.297Z,7.38
2022-12-07T04:18:56.997Z,7.22
2022-12-07T04:21:25.884Z,7.40
2022-12-07T04:23:54.500Z,7.38
2022-12-07T04:26:23.329Z,7.22
2022-12-07T04:28:52.810Z,7.57
2022-12-07T04:31:21.985Z,7.22
2022-12-07T04:33:51.145Z,7.85
2022-12-07T04:36:21.902Z,9.38
2022-12-07T04:38:50.729Z,9.27
2022-12-07T04:41:19.340Z,9.52
2022-12-07T04:43:48.789Z,9.50
2022-12-07T04:46:17.576Z,9.70
2022-12-07T04:48:46.460Z,9.43
2022-12-07T04:51:18.024Z,9.90
2022-12-07T04:53:47.334Z,11.05
2022-12-07T04:56:17.478Z,10.50
2022-12-07T04:58:48.279Z,10.82
2022-12-07T05:01:19.170Z,12.38
2022-12-07T05:03:48.049Z,11.60
2022-12-07T05:06:17.157Z,11.83
2022-12-07T05:08:46.313Z,11.18
2022-12-07T05:11:34.197Z,12.00
2022-12-07T05:14:05.185Z,12.25
2022-12-07T05:16:34.905Z,13.02
2022-12-07T05:19:06.110Z,13.02
2022-12-07T05:21:35.224Z,13.80
2022-12-07T05:24:04.416Z,13.10
2022-12-07T05:26:33.273Z,13.45
2022-12-07T05:29:02.736Z,13.25
2022-12-07T05:31:31.691Z,14.05
2022-12-07T05:34:00.723Z,13.02
2022-12-07T05:36:31.012Z,13.43
2022-12-07T05:39:00.695Z,14.02
2022-12-07T05:41:47.758Z,13.60
2022-12-07T05:44:17.083Z,13.23
2022-12-07T05:46:45.912Z,12.65
2022-12-07T05:49:14.912Z,13.93
2022-12-07T05:51:43.848Z,13.88
2022-12-07T05:54:12.970Z,13.82
2022-12-07T05:56:42.058Z,12.70
2022-12-07T05:59:26.803Z,12.17
2022-12-07T06:01:59.041Z,13.25
2022-12-07T06:04:30.845Z,13.73
2022-12-07T06:07:01.021Z,13.15
2022-12-07T06:09:31.035Z,11.43
2022-12-07T06:12:19.432Z,9.68
2022-12-07T06:14:48.396Z,7.63
2022-12-07T06:17:17.885Z,12.00
2022-12-07T06:19:47.767Z,11.05
2022-12-07T06:22:18.231Z,11.30
2022-12-07T06:24:47.239Z,11.37
2022-12-07T06:27:16.379Z,12.88
2022-12-07T06:29:45.334Z,12.60
2022-12-07T06:32:14.189Z,10.30
2022-12-07T06:34:43.590Z,9.32
2022-12-07T06:37:12.730Z,9.23
2022-12-07T06:39:41.759Z,9.57
2022-12-07T06:42:10.534Z,8.70
2022-12-07T06:44:39.305Z,6.72
2022-12-07T06:47:40.266Z,7.60
2022-12-07T06:49:58.790Z,5.93
2022-12-07T06:52:27.517Z,7.43
2022-12-07T06:54:56.285Z,7.57
2022-12-07T06:57:24.994Z,10.63
2022-12-07T06:59:53.969Z,12.07
2022-12-07T07:02:22.645Z,6.47
2022-12-07T07:04:51.500Z,5.88
2022-12-07T07:07:20.130Z,5.75
2022-12-07T07:09:49.088Z,5.78
2022-12-07T07:12:17.748Z,5.70
2022-12-07T07:14:46.716Z,5.85
2022-12-07T07:17:15.540Z,5.32
2022-12-07T07:19:44.384Z,5.88
2022-12-07T07:22:13.120Z,5.80
2022-12-07T07:24:42.081Z,5.35
2022-12-07T07:27:10.903Z,5.47
2022-12-07T07:29:39.796Z,5.55
2022-12-07T07:32:09.477Z,5.97
2022-12-07T07:34:38.932Z,6.28
2022-12-07T07:37:07.898Z,5.55
2022-12-07T07:39:36.835Z,5.32
2022-12-07T07:42:05.620Z,5.70
2022-12-07T07:44:37.430Z,6.22
2022-12-07T07:47:06.676Z,6.00
2022-12-07T07:49:35.519Z,5.68
2022-12-07T07:52:05.520Z,5.93
2022-12-07T07:54:34.723Z,5.90
2022-12-07T07:57:03.519Z,5.32
2022-12-07T07:59:32.203Z,6.22
2022-12-07T08:02:01.136Z,5.75
2022-12-07T08:04:30.699Z,5.90
2022-12-07T08:07:00.085Z,5.60
2022-12-07T08:09:28.977Z,6.50
2022-12-07T08:11:58.044Z,5.78
2022-12-07T08:14:27.660Z,5.68
2022-12-07T08:16:56.570Z,5.70
2022-12-07T08:19:26.259Z,5.57
2022-12-07T08:21:55.035Z,5.63
2022-12-07T08:24:24.144Z,5.47
2022-12-07T08:26:53.141Z,5.68
2022-12-07T08:29:22.780Z,5.95
2022-12-07T08:31:51.867Z,5.38
2022-12-07T08:34:20.517Z,6.03
2022-12-07T08:36:49.441Z,5.82
2022-12-07T08:39:33.439Z,5.85
2022-12-07T08:42:02.539Z,5.77
2022-12-07T08:44:31.257Z,5.57
2022-12-07T08:47:04.860Z,5.40
2022-12-07T08:49:40.096Z,5.40
2022-12-07T08:52:09.450Z,5.30
2022-12-07T08:54:41.589Z,5.63
2022-12-07T08:57:11.511Z,5.68
2022-12-07T08:59:40.489Z,5.57
2022-12-07T09:02:09.330Z,6.10
2022-12-07T09:04:38.379Z,5.72
2022-12-07T09:07:08.118Z,5.13
2022-12-07T09:09:37.155Z,5.75
2022-12-07T09:12:06.082Z,5.72
2022-12-07T09:14:35.812Z,5.30
2022-12-07T09:17:13.611Z,5.57
2022-12-07T09:19:44.208Z,5.70
2022-12-07T09:22:13.880Z,5.88
2022-12-07T09:24:42.563Z,5.85
2022-12-07T09:27:11.438Z,5.63
2022-12-07T09:29:40.268Z,5.90
2022-12-07T09:32:11.810Z,6.00
2022-12-07T09:34:41.515Z,5.70
2022-12-07T09:37:10.451Z,5.88
2022-12-07T09:39:49.517Z,5.60
2022-12-07T09:42:54.307Z,5.25
2022-12-07T09:45:38.006Z,6.35
2022-12-07T09:48:08.709Z,5.75
2022-12-07T09:50:37.751Z,5.30
2022-12-07T09:53:22.979Z,5.72
2022-12-07T09:55:52.036Z,5.38
2022-12-07T09:58:25.332Z,5.47
2022-12-07T10:01:13.659Z,5.90
2022-12-07T10:04:05.350Z,5.93
2022-12-07T10:06:34.312Z,5.90
2022-12-07T10:09:03.751Z,6.18
2022-12-07T10:11:32.625Z,6.32
2022-12-07T10:14:14.638Z,6.83
2022-12-07T10:16:44.260Z,6.88
2022-12-07T10:19:33.923Z,5.97
2022-12-07T10:22:16.938Z,7.05
2022-12-07T10:24:49.212Z,6.88
2022-12-07T10:27:32.248Z,6.82
2022-12-07T10:30:01.918Z,7.25
2022-12-07T10:32:35.887Z,7.70
2022-12-07T10:35:34.716Z,7.83
2022-12-07T10:38:03.908Z,7.82
2022-12-07T10:40:40.871Z,10.37
2022-12-07T10:43:16.735Z,13.68
2022-12-07T10:46:16.327Z,21.38
2022-12-07T10:49:00.683Z,24.70
2022-12-07T10:51:53.672Z,15.95
2022-12-07T10:54:51.487Z,12.57
2022-12-07T10:57:32.057Z,11.90
2022-12-07T11:00:07.365Z,12.45
2022-12-07T11:02:56.761Z,9.60
2022-12-07T11:05:38.730Z,10.50
2022-12-07T11:08:21.601Z,8.73
2022-12-07T11:11:16.700Z,8.00
2022-12-07T11:13:58.997Z,8.55
2022-12-07T11:16:36.664Z,7.55
2022-12-07T11:19:16.230Z,7.22
2022-12-07T11:21:58.293Z,7.43
2022-12-07T11:24:50.484Z,7.05
2022-12-07T11:28:03.885Z,7.55
2022-12-07T11:31:05.151Z,7.60
2022-12-07T11:34:06.588Z,8.20
2022-12-07T11:36:52.518Z,8.63
2022-12-07T11:39:22.783Z,9.40
2022-12-07T11:41:59.110Z,8.88
2022-12-07T11:44:55.354Z,9.82
2022-12-07T11:47:54.390Z,10.63
2022-12-07T11:50:26.488Z,9.40
2022-12-07T11:53:10.237Z,10.98
2022-12-07T11:55:57.584Z,11.18
2022-12-07T11:59:05.111Z,9.83
2022-12-07T12:02:11.437Z,11.15
2022-12-07T12:04:54.317Z,8.88
2022-12-07T12:10:27.564Z,9.32
2022-12-07T12:17:00.587Z,7.63
2022-12-07T12:20:01.788Z,7.47
2022-12-07T12:22:42.765Z,7.23
2022-12-07T12:25:31.111Z,8.77
2022-12-07T12:28:03.496Z,7.70
2022-12-07T12:30:39.272Z,6.17
2022-12-07T12:33:08.047Z,7.28
2022-12-07T12:35:39.141Z,8.05
2022-12-07T12:38:28.928Z,9.68
2022-12-07T12:40:58.781Z,10.52
2022-12-07T12:43:52.893Z,9.98
2022-12-07T12:46:35.534Z,9.40
2022-12-07T12:49:41.285Z,9.35
2022-12-07T12:52:16.086Z,10.80
2022-12-07T12:55:11.978Z,11.37
2022-12-07T12:57:40.969Z,13.23
2022-12-07T13:00:24.602Z,13.27
2022-12-07T13:02:57.623Z,13.48
2022-12-07T13:05:30.122Z,14.48
2022-12-07T13:08:34.845Z,14.75
2022-12-07T13:11:34.209Z,14.50
2022-12-07T13:14:42.630Z,15.38
2022-12-07T13:17:14.090Z,15.63
2022-12-07T13:19:44.300Z,14.13
2022-12-07T13:22:39.928Z,14.20
2022-12-07T13:25:29.345Z,13.07
2022-12-07T13:28:18.860Z,12.88
2022-12-07T13:31:16.964Z,12.98
2022-12-07T13:33:48.422Z,12.70
2022-12-07T13:36:25.710Z,12.00
2022-12-07T13:39:00.211Z,10.52
2022-12-07T13:41:31.062Z,10.55
2022-12-07T13:44:15.279Z,11.48
2022-12-07T13:47:19.468Z,12.05
2022-12-07T13:49:58.741Z,12.00
2022-12-07T13:52:31.369Z,12.18
2022-12-07T13:55:01.445Z,13.18
2022-12-07T13:57:32.955Z,13.00
2022-12-07T14:00:03.050Z,12.63
2022-12-07T14:02:38.789Z,12.88
2022-12-07T14:05:28.774Z,11.93
2022-12-07T14:08:13.793Z,12.18
2022-12-07T14:10:50.052Z,10.97
2022-12-07T14:13:30.645Z,9.57
2022-12-07T14:16:01.128Z,9.77
2022-12-07T14:18:39.194Z,8.95
2022-12-07T14:21:20.510Z,8.80
2022-12-07T14:24:24.481Z,8.77
2022-12-07T14:26:53.996Z,9.05
2022-12-07T14:29:29.150Z,9.23
2022-12-07T14:32:00.810Z,8.18
2022-12-07T14:34:33.010Z,8.02
2022-12-07T14:37:01.706Z,8.07
2022-12-07T14:39:30.340Z,7.32
2022-12-07T14:41:59.006Z,7.45
2022-12-07T14:44:33.753Z,7.18
2022-12-07T14:49:54.586Z,5.97
2022-12-07T14:55:30.231Z,8.93
2022-12-07T14:58:00.870Z,8.18
2022-12-07T15:00:31.107Z,8.50
2022-12-07T15:03:00.093Z,9.02
2022-12-07T15:05:28.689Z,10.48
2022-12-07T15:07:57.873Z,11.43
2022-12-07T15:10:33.890Z,9.90
2022-12-07T15:13:23.235Z,9.10
2022-12-07T15:15:54.165Z,8.63
2022-12-07T15:18:25.510Z,8.50
2022-12-07T15:20:54.415Z,10.90
2022-12-07T15:23:23.853Z,9.07
2022-12-07T15:25:53.189Z,8.10
2022-12-07T15:28:21.870Z,8.27
2022-12-07T15:30:50.893Z,8.32
2022-12-07T15:33:19.717Z,9.50
2022-12-07T15:35:48.555Z,6.43
2022-12-07T15:38:27.888Z,5.93
2022-12-07T15:41:02.657Z,6.97
2022-12-07T15:43:49.430Z,7.30
2022-12-07T15:46:18.304Z,6.00
2022-12-07T15:48:48.286Z,33.92
2022-12-07T15:51:20.284Z,24.10
2022-12-07T15:53:53.801Z,11.80
2022-12-07T15:56:22.601Z,9.48
2022-12-07T15:58:53.065Z,11.75
2022-12-07T16:01:22.493Z,13.15
2022-12-07T16:03:51.605Z,13.23
2022-12-07T16:06:21.843Z,11.77
2022-12-07T16:08:51.043Z,11.32
2022-12-07T16:11:20.077Z,11.57
2022-12-07T16:13:49.100Z,11.75
2022-12-07T16:16:19.959Z,11.55
2022-12-07T16:18:49.106Z,10.75
2022-12-07T16:21:24.695Z,9.75
2022-12-07T16:23:54.855Z,8.88
2022-12-07T16:26:24.871Z,9.82
2022-12-07T16:28:55.459Z,7.73
2022-12-07T16:31:26.750Z,7.38
2022-12-07T16:33:58.122Z,8.75
2022-12-07T16:37:02.105Z,8.15
2022-12-07T16:39:20.220Z,7.75
2022-12-07T16:41:49.044Z,7.70
2022-12-07T16:44:17.607Z,6.70
2022-12-07T16:46:46.715Z,7.25
2022-12-07T16:49:19.227Z,8.88
2022-12-07T16:52:08.627Z,7.63
2022-12-07T16:54:40.092Z,8.13
2022-12-07T16:57:09.212Z,7.10
2022-12-07T16:59:38.346Z,6.72
2022-12-07T17:02:08.474Z,6.63
2022-12-07T17:04:39.593Z,6.10
2022-12-07T17:07:08.682Z,7.00
2022-12-07T17:09:38.239Z,6.78
2022-12-07T17:12:08.311Z,7.15
2022-12-07T17:14:56.213Z,6.15
2022-12-07T17:17:25.260Z,6.15
2022-12-07T17:19:54.098Z,5.18
2022-12-07T17:22:23.009Z,5.20
2022-12-07T17:24:52.234Z,5.05
2022-12-07T17:27:21.326Z,4.85
2022-12-07T17:29:49.933Z,5.13
2022-12-07T17:32:18.906Z,4.75
2022-12-07T17:34:47.482Z,4.50
2022-12-07T17:37:16.495Z,7.97
2022-12-07T17:39:45.370Z,6.40
2022-12-07T17:42:32.533Z,6.43
2022-12-07T17:45:02.401Z,5.32
2022-12-07T17:47:31.459Z,5.07
2022-12-07T17:50:06.512Z,5.57
2022-12-07T17:52:57.840Z,5.05
2022-12-07T17:55:27.210Z,8.60
2022-12-07T17:57:55.981Z,6.80
2022-12-07T18:00:25.119Z,6.32
2022-12-07T18:02:54.058Z,6.87
2022-12-07T18:05:23.488Z,5.93
2022-12-07T18:07:54.020Z,5.55
2022-12-07T18:10:23.132Z,6.15
2022-12-07T18:12:52.545Z,5.55
2022-12-07T18:15:21.485Z,5.07
2022-12-07T18:17:51.370Z,5.43
2022-12-07T18:20:20.230Z,5.30
2022-12-07T18:22:48.918Z,10.63
2022-12-07T18:25:17.987Z,6.25
2022-12-07T18:27:46.841Z,6.95
2022-12-07T18:30:16.209Z,6.03
2022-12-07T18:32:45.192Z,5.70
2022-12-07T18:35:14.177Z,5.50
2022-12-07T18:37:42.847Z,6.10
2022-12-07T18:40:12.271Z,6.15
2022-12-07T18:42:41.263Z,6.47
2022-12-07T18:45:15.082Z,7.05
2022-12-07T18:47:46.096Z,6.60
2022-12-07T18:50:14.796Z,6.10
2022-12-07T18:52:43.423Z,6.05
2022-12-07T18:55:15.411Z,5.80
2022-12-07T18:57:44.229Z,5.18
2022-12-07T19:00:13.567Z,4.93
2022-12-07T19:02:43.021Z,5.00
2022-12-07T19:05:15.257Z,5.35
2022-12-07T19:07:44.845Z,5.45
2022-12-07T19:10:15.171Z,5.10
2022-12-07T19:12:44.037Z,5.75
2022-12-07T19:15:14.437Z,6.80
2022-12-07T19:17:43.333Z,5.28
2022-12-07T19:20:15.385Z,5.40
2022-12-07T19:22:44.489Z,5.22
2022-12-07T19:25:13.028Z,5.15
2022-12-07T19:27:41.962Z,5.30
2022-12-07T19:30:12.268Z,4.97
2022-12-07T19:32:41.028Z,5.18
2022-12-07T19:35:14.914Z,4.97
2022-12-07T19:37:44.133Z,4.60
2022-12-07T19:40:13.025Z,5.13
2022-12-07T19:42:41.894Z,4.60
2022-12-07T19:45:14.804Z,4.50
2022-12-07T19:47:44.095Z,4.47
2022-12-07T19:50:13.176Z,4.47
2022-12-07T19:52:42.027Z,4.70
2022-12-07T19:55:14.745Z,4.15
2022-12-07T19:57:43.784Z,5.00
2022-12-07T20:00:12.989Z,5.22
2022-12-07T20:02:42.032Z,6.50
2022-12-07T20:05:14.832Z,15.90
2022-12-07T20:07:43.834Z,24.65
2022-12-07T20:10:12.843Z,9.65
2022-12-07T20:13:00.197Z,13.10
2022-12-07T20:15:29.045Z,22.45
2022-12-07T20:17:57.700Z,34.55
2022-12-07T20:20:26.577Z,23.67
2022-12-07T20:22:55.391Z,21.98
2022-12-07T20:25:24.097Z,30.52
2022-12-07T20:27:52.788Z,23.80
2022-12-07T20:30:21.863Z,11.15
2022-12-07T20:32:51.819Z,10.85
2022-12-07T20:35:22.229Z,9.73
2022-12-07T20:37:51.242Z,16.85
2022-12-07T20:40:19.892Z,17.02
2022-12-07T20:42:49.150Z,7.15
2022-12-07T20:45:18.048Z,5.40
2022-12-07T20:47:47.483Z,6.03
2022-12-07T20:50:16.250Z,4.65
2022-12-07T20:52:45.182Z,2.92
2022-12-07T20:55:14.118Z,6.47
2022-12-07T20:57:43.397Z,6.03
2022-12-07T21:00:12.660Z,1.92
2022-12-07T21:02:41.955Z,2.10
2022-12-07T21:05:15.514Z,1.90
2022-12-07T21:07:44.906Z,2.40
2022-12-07T21:10:13.909Z,1.95
2022-12-07T21:12:42.961Z,3.42
2022-12-07T21:15:11.600Z,4.03
2022-12-07T21:17:40.402Z,4.55
2022-12-07T21:20:10.300Z,5.68
2022-12-07T21:22:39.198Z,6.43
2022-12-07T21:25:15.211Z,4.80
2022-12-07T21:27:44.012Z,4.53
2022-12-07T21:30:13.052Z,4.45
2022-12-07T21:32:42.262Z,4.00
2022-12-07T21:35:11.226Z,4.10
2022-12-07T21:37:40.984Z,4.03
2022-12-07T21:40:16.501Z,3.50
2022-12-07T21:42:46.570Z,3.20
2022-12-07T21:45:15.413Z,2.72
2022-12-07T21:47:44.950Z,3.88
2022-12-07T21:50:13.564Z,3.17
2022-12-07T21:52:43.260Z,3.40
2022-12-07T21:55:14.914Z,4.40
2022-12-07T21:57:44.268Z,4.78
2022-12-07T22:00:13.673Z,8.60
2022-12-07T22:02:42.491Z,2.45
2022-12-07T22:05:14.822Z,2.17
2022-12-07T22:07:43.802Z,1.95
2022-12-07T22:10:12.593Z,1.70
2022-12-07T22:12:41.533Z,2.05
2022-12-07T22:15:11.249Z,1.90
2022-12-07T22:17:39.948Z,2.03
2022-12-07T22:20:09.395Z,2.10
2022-12-07T22:22:38.154Z,2.00
2022-12-07T22:25:07.731Z,2.20
2022-12-07T22:27:36.651Z,2.58
2022-12-07T22:30:10.388Z,2.20
2022-12-07T22:32:48.377Z,2.30
2022-12-07T22:35:18.574Z,2.20
2022-12-07T22:37:47.237Z,2.20
2022-12-07T22:40:16.960Z,2.23
2022-12-07T22:42:45.738Z,1.70
2022-12-07T22:45:14.919Z,2.08
2022-12-07T22:47:43.651Z,8.68
2022-12-07T22:50:13.139Z,3.17
2022-12-07T22:52:42.307Z,2.17
2022-12-07T22:55:12.655Z,2.00
2022-12-07T22:57:41.566Z,2.40
2022-12-07T23:00:11.288Z,2.00
2022-12-07T23:02:40.324Z,2.10
2022-12-07T23:05:11.181Z,2.38
2022-12-07T23:07:40.973Z,1.73
2022-12-07T23:10:10.150Z,1.65
2022-12-07T23:12:57.424Z,1.80
2022-12-07T23:15:29.269Z,1.50
2022-12-07T23:17:58.022Z,1.70
2022-12-07T23:20:26.953Z,1.53
2022-12-07T23:22:55.935Z,1.80
2022-12-07T23:25:24.842Z,2.10
2022-12-07T23:27:53.659Z,2.20
2022-12-07T23:30:22.518Z,2.20
2022-12-07T23:32:51.551Z,2.15
2022-12-07T23:35:20.247Z,2.10
2022-12-07T23:37:49.020Z,2.20
2022-12-07T23:40:18.569Z,2.35
2022-12-07T23:42:47.722Z,2.30
2022-12-07T23:45:16.344Z,2.15
2022-12-07T23:47:45.337Z,1.90
2022-12-07T23:50:14.109Z,2.25
2022-12-07T23:52:42.993Z,1.90
2022-12-07T23:55:11.910Z,3.00
2022-12-07T23:57:41.057Z,3.30
